sensor_id;sensor_type;location;lat;lon;timestamp;temperature;humidity
18456;DHT22;9357;49.900;8.208;2023-08-12T00:00:22;23.80;99.90
18456;DHT22;9357;49.900;8.208;2023-08-12T00:01:54;23.80;99.90
18456;DHT22;9357;49.900;8.208;2023-08-12T00:03:26;23.80;99.90
18456;DHT22;9357;49.900;8.208;2023-08-12T00:04:59;23.80;99.90
18456;DHT22;9357;49.900;8.208;2023-08-12T00:06:31;23.80;99.90
18456;DHT22;9357;49.900;8.208;2023-08-12T00:08:05;23.80;99.90
18456;DHT22;9357;49.900;8.208;2023-08-12T00:09:38;23.80;99.90
18456;DHT22;9357;49.900;8.208;2023-08-12T00:11:10;23.70;99.90
18456;DHT22;9357;49.900;8.208;2023-08-12T00:12:43;23.70;99.90
18456;DHT22;9357;49.900;8.208;2023-08-12T00:14:15;23.70;99.90
18456;DHT22;9357;49.900;8.208;2023-08-12T00:15:47;23.70;99.90
18456;DHT22;9357;49.900;8.208;2023-08-12T00:17:19;23.80;99.90
18456;DHT22;9357;49.900;8.208;2023-08-12T00:18:52;23.80;99.90
18456;DHT22;9357;49.900;8.208;2023-08-12T00:20:25;23.90;99.90
18456;DHT22;9357;49.900;8.208;2023-08-12T00:21:58;23.90;99.90
18456;DHT22;9357;49.900;8.208;2023-08-12T00:23:31;23.80;99.90
18456;DHT22;9357;49.900;8.208;2023-08-12T00:25:05;23.80;99.90
18456;DHT22;9357;49.900;8.208;2023-08-12T00:26:37;23.80;99.90
18456;DHT22;9357;49.900;8.208;2023-08-12T00:28:10;23.70;99.90
18456;DHT22;9357;49.900;8.208;2023-08-12T00:29:43;23.70;99.90
18456;DHT22;9357;49.900;8.208;2023-08-12T00:31:14;23.60;99.90
18456;DHT22;9357;49.900;8.208;2023-08-12T00:32:47;23.60;99.90
18456;DHT22;9357;49.900;8.208;2023-08-12T00:34:20;23.60;99.90
18456;DHT22;9357;49.900;8.208;2023-08-12T00:35:52;23.50;99.90
18456;DHT22;9357;49.900;8.208;2023-08-12T00:37:24;23.50;99.90
18456;DHT22;9357;49.900;8.208;2023-08-12T00:38:57;23.50;99.90
18456;DHT22;9357;49.900;8.208;2023-08-12T00:40:30;23.50;99.90
18456;DHT22;9357;49.900;8.208;2023-08-12T00:42:02;23.50;99.90
18456;DHT22;9357;49.900;8.208;2023-08-12T00:43:35;23.50;99.90
18456;DHT22;9357;49.900;8.208;2023-08-12T00:45:09;23.50;99.90
18456;DHT22;9357;49.900;8.208;2023-08-12T00:46:42;23.50;99.90
18456;DHT22;9357;49.900;8.208;2023-08-12T00:48:17;23.50;99.90
18456;DHT22;9357;49.900;8.208;2023-08-12T00:49:49;23.50;99.90
18456;DHT22;9357;49.900;8.208;2023-08-12T00:51:22;23.50;99.90
18456;DHT22;9357;49.900;8.208;2023-08-12T00:52:54;23.50;99.90
18456;DHT22;9357;49.900;8.208;2023-08-12T00:54:28;23.50;99.90
18456;DHT22;9357;49.900;8.208;2023-08-12T00:56:00;23.50;99.90
18456;DHT22;9357;49.900;8.208;2023-08-12T00:57:33;23.50;99.90
18456;DHT22;9357;49.900;8.208;2023-08-12T00:59:07;23.50;99.90
18456;DHT22;9357;49.900;8.208;2023-08-12T01:00:42;23.50;99.90
18456;DHT22;9357;49.900;8.208;2023-08-12T01:02:15;23.50;99.90
18456;DHT22;9357;49.900;8.208;2023-08-12T01:03:47;23.50;99.90
18456;DHT22;9357;49.900;8.208;2023-08-12T01:05:20;23.50;99.90
18456;DHT22;9357;49.900;8.208;2023-08-12T01:06:51;23.50;99.90
18456;DHT22;9357;49.900;8.208;2023-08-12T01:08:29;23.50;99.90
18456;DHT22;9357;49.900;8.208;2023-08-12T01:10:04;23.50;99.90
18456;DHT22;9357;49.900;8.208;2023-08-12T01:11:39;23.50;99.90
18456;DHT22;9357;49.900;8.208;2023-08-12T01:13:19;23.50;99.90
18456;DHT22;9357;49.900;8.208;2023-08-12T01:15:04;23.40;99.90
18456;DHT22;9357;49.900;8.208;2023-08-12T01:16:43;23.30;99.90
18456;DHT22;9357;49.900;8.208;2023-08-12T01:18:18;23.30;99.90
18456;DHT22;9357;49.900;8.208;2023-08-12T01:19:51;23.30;99.90
18456;DHT22;9357;49.900;8.208;2023-08-12T01:21:24;23.30;99.90
18456;DHT22;9357;49.900;8.208;2023-08-12T01:23:08;23.30;99.90
18456;DHT22;9357;49.900;8.208;2023-08-12T01:24:43;23.30;99.90
18456;DHT22;9357;49.900;8.208;2023-08-12T01:26:15;23.30;99.90
18456;DHT22;9357;49.900;8.208;2023-08-12T01:27:48;23.30;99.90
18456;DHT22;9357;49.900;8.208;2023-08-12T01:29:20;23.30;99.90
18456;DHT22;9357;49.900;8.208;2023-08-12T01:30:57;23.30;99.90
18456;DHT22;9357;49.900;8.208;2023-08-12T01:32:36;23.30;99.90
18456;DHT22;9357;49.900;8.208;2023-08-12T01:34:14;23.30;99.90
18456;DHT22;9357;49.900;8.208;2023-08-12T01:35:53;23.30;99.90
18456;DHT22;9357;49.900;8.208;2023-08-12T01:37:28;23.30;99.90
18456;DHT22;9357;49.900;8.208;2023-08-12T01:39:01;23.30;99.90
18456;DHT22;9357;49.900;8.208;2023-08-12T01:40:38;23.30;99.90
18456;DHT22;9357;49.900;8.208;2023-08-12T01:42:11;23.30;99.90
18456;DHT22;9357;49.900;8.208;2023-08-12T01:43:43;23.30;99.90
18456;DHT22;9357;49.900;8.208;2023-08-12T01:45:18;23.30;99.90
18456;DHT22;9357;49.900;8.208;2023-08-12T01:46:50;23.30;99.90
18456;DHT22;9357;49.900;8.208;2023-08-12T01:48:22;23.30;99.90
18456;DHT22;9357;49.900;8.208;2023-08-12T01:49:55;23.30;99.90
18456;DHT22;9357;49.900;8.208;2023-08-12T01:51:28;23.30;99.90
18456;DHT22;9357;49.900;8.208;2023-08-12T01:53:01;23.20;99.90
18456;DHT22;9357;49.900;8.208;2023-08-12T01:54:35;23.10;99.90
18456;DHT22;9357;49.900;8.208;2023-08-12T01:56:07;23.10;99.90
18456;DHT22;9357;49.900;8.208;2023-08-12T01:57:40;23.10;99.90
18456;DHT22;9357;49.900;8.208;2023-08-12T01:59:12;23.10;99.90
18456;DHT22;9357;49.900;8.208;2023-08-12T02:00:45;23.10;99.90
18456;DHT22;9357;49.900;8.208;2023-08-12T02:02:16;23.10;99.90
18456;DHT22;9357;49.900;8.208;2023-08-12T02:03:49;23.10;99.90
18456;DHT22;9357;49.900;8.208;2023-08-12T02:05:22;23.10;99.90
18456;DHT22;9357;49.900;8.208;2023-08-12T02:06:54;23.10;99.90
18456;DHT22;9357;49.900;8.208;2023-08-12T02:08:27;23.10;99.90
18456;DHT22;9357;49.900;8.208;2023-08-12T02:10:00;23.10;99.90
18456;DHT22;9357;49.900;8.208;2023-08-12T02:11:33;23.00;99.90
18456;DHT22;9357;49.900;8.208;2023-08-12T02:13:04;23.10;99.90
18456;DHT22;9357;49.900;8.208;2023-08-12T02:14:37;23.00;99.90
18456;DHT22;9357;49.900;8.208;2023-08-12T02:16:09;23.00;99.90
18456;DHT22;9357;49.900;8.208;2023-08-12T02:17:42;23.00;99.90
18456;DHT22;9357;49.900;8.208;2023-08-12T02:19:14;22.90;99.90
18456;DHT22;9357;49.900;8.208;2023-08-12T02:20:47;22.90;99.90
18456;DHT22;9357;49.900;8.208;2023-08-12T02:22:18;23.00;99.90
18456;DHT22;9357;49.900;8.208;2023-08-12T02:23:51;22.90;99.90
18456;DHT22;9357;49.900;8.208;2023-08-12T02:25:25;23.00;99.90
18456;DHT22;9357;49.900;8.208;2023-08-12T02:26:57;23.00;99.90
18456;DHT22;9357;49.900;8.208;2023-08-12T02:28:30;22.90;99.90
18456;DHT22;9357;49.900;8.208;2023-08-12T02:30:02;22.90;99.90
18456;DHT22;9357;49.900;8.208;2023-08-12T02:31:34;23.00;99.90
18456;DHT22;9357;49.900;8.208;2023-08-12T02:33:06;23.00;99.90
18456;DHT22;9357;49.900;8.208;2023-08-12T02:34:39;22.90;99.90
18456;DHT22;9357;49.900;8.208;2023-08-12T02:36:12;22.90;99.90
18456;DHT22;9357;49.900;8.208;2023-08-12T02:37:44;22.90;99.90
18456;DHT22;9357;49.900;8.208;2023-08-12T02:39:16;22.80;99.90
18456;DHT22;9357;49.900;8.208;2023-08-12T02:40:50;22.80;99.90
18456;DHT22;9357;49.900;8.208;2023-08-12T02:42:23;22.80;99.90
18456;DHT22;9357;49.900;8.208;2023-08-12T02:43:54;22.70;99.90
18456;DHT22;9357;49.900;8.208;2023-08-12T02:45:27;22.60;99.90
18456;DHT22;9357;49.900;8.208;2023-08-12T02:46:59;22.60;99.90
18456;DHT22;9357;49.900;8.208;2023-08-12T02:48:32;22.50;99.90
18456;DHT22;9357;49.900;8.208;2023-08-12T02:50:06;22.50;99.90
18456;DHT22;9357;49.900;8.208;2023-08-12T02:51:38;22.50;99.90
18456;DHT22;9357;49.900;8.208;2023-08-12T02:53:10;22.50;99.90
18456;DHT22;9357;49.900;8.208;2023-08-12T02:54:43;22.50;99.90
18456;DHT22;9357;49.900;8.208;2023-08-12T02:56:16;22.50;99.90
18456;DHT22;9357;49.900;8.208;2023-08-12T02:57:49;22.50;99.90
18456;DHT22;9357;49.900;8.208;2023-08-12T02:59:22;22.50;99.90
18456;DHT22;9357;49.900;8.208;2023-08-12T03:00:54;22.50;99.90
18456;DHT22;9357;49.900;8.208;2023-08-12T03:02:27;22.40;99.90
18456;DHT22;9357;49.900;8.208;2023-08-12T03:03:59;22.50;99.90
18456;DHT22;9357;49.900;8.208;2023-08-12T03:05:32;22.50;99.90
18456;DHT22;9357;49.900;8.208;2023-08-12T03:07:04;22.50;99.90
18456;DHT22;9357;49.900;8.208;2023-08-12T03:08:36;22.40;99.90
18456;DHT22;9357;49.900;8.208;2023-08-12T03:10:09;22.50;99.90
18456;DHT22;9357;49.900;8.208;2023-08-12T03:11:43;22.40;99.90
18456;DHT22;9357;49.900;8.208;2023-08-12T03:13:16;22.50;99.90
18456;DHT22;9357;49.900;8.208;2023-08-12T03:14:48;22.50;99.90
18456;DHT22;9357;49.900;8.208;2023-08-12T03:16:21;22.50;99.90
18456;DHT22;9357;49.900;8.208;2023-08-12T03:17:55;22.50;99.90
18456;DHT22;9357;49.900;8.208;2023-08-12T03:19:28;22.50;99.90
18456;DHT22;9357;49.900;8.208;2023-08-12T03:21:00;22.50;99.90
18456;DHT22;9357;49.900;8.208;2023-08-12T03:22:32;22.50;99.90
18456;DHT22;9357;49.900;8.208;2023-08-12T03:24:05;22.50;99.90
18456;DHT22;9357;49.900;8.208;2023-08-12T03:25:38;22.50;99.90
18456;DHT22;9357;49.900;8.208;2023-08-12T03:27:11;22.40;99.90
18456;DHT22;9357;49.900;8.208;2023-08-12T03:28:44;22.40;99.90
18456;DHT22;9357;49.900;8.208;2023-08-12T03:30:16;22.30;99.90
18456;DHT22;9357;49.900;8.208;2023-08-12T03:31:48;22.30;99.90
18456;DHT22;9357;49.900;8.208;2023-08-12T03:33:21;22.30;99.90
18456;DHT22;9357;49.900;8.208;2023-08-12T03:34:54;22.20;99.90
18456;DHT22;9357;49.900;8.208;2023-08-12T03:36:26;22.10;99.90
18456;DHT22;9357;49.900;8.208;2023-08-12T03:37:58;22.10;99.90
18456;DHT22;9357;49.900;8.208;2023-08-12T03:39:30;22.00;99.90
18456;DHT22;9357;49.900;8.208;2023-08-12T03:41:04;22.00;99.90
18456;DHT22;9357;49.900;8.208;2023-08-12T03:42:37;22.00;99.90
18456;DHT22;9357;49.900;8.208;2023-08-12T03:44:10;22.00;99.90
18456;DHT22;9357;49.900;8.208;2023-08-12T03:45:42;22.00;99.90
18456;DHT22;9357;49.900;8.208;2023-08-12T03:47:15;22.00;99.90
18456;DHT22;9357;49.900;8.208;2023-08-12T03:48:51;22.10;99.90
18456;DHT22;9357;49.900;8.208;2023-08-12T03:50:23;22.00;99.90
18456;DHT22;9357;49.900;8.208;2023-08-12T03:51:56;22.00;99.90
18456;DHT22;9357;49.900;8.208;2023-08-12T03:53:28;22.00;99.90
18456;DHT22;9357;49.900;8.208;2023-08-12T03:55:01;22.00;99.90
18456;DHT22;9357;49.900;8.208;2023-08-12T03:56:33;21.90;99.90
18456;DHT22;9357;49.900;8.208;2023-08-12T03:58:07;21.90;99.90
18456;DHT22;9357;49.900;8.208;2023-08-12T03:59:39;21.90;99.90
18456;DHT22;9357;49.900;8.208;2023-08-12T04:01:12;21.90;99.90
18456;DHT22;9357;49.900;8.208;2023-08-12T04:02:43;22.00;99.90
18456;DHT22;9357;49.900;8.208;2023-08-12T04:04:16;22.00;99.90
18456;DHT22;9357;49.900;8.208;2023-08-12T04:05:49;22.00;99.90
18456;DHT22;9357;49.900;8.208;2023-08-12T04:07:22;21.90;99.90
18456;DHT22;9357;49.900;8.208;2023-08-12T04:08:55;22.00;99.90
18456;DHT22;9357;49.900;8.208;2023-08-12T04:10:27;22.00;99.90
18456;DHT22;9357;49.900;8.208;2023-08-12T04:12:00;22.00;99.90
18456;DHT22;9357;49.900;8.208;2023-08-12T04:13:33;21.90;99.90
18456;DHT22;9357;49.900;8.208;2023-08-12T04:15:07;21.90;99.90
18456;DHT22;9357;49.900;8.208;2023-08-12T04:16:39;21.90;99.90
18456;DHT22;9357;49.900;8.208;2023-08-12T04:18:12;21.90;99.90
18456;DHT22;9357;49.900;8.208;2023-08-12T04:19:43;21.90;99.90
18456;DHT22;9357;49.900;8.208;2023-08-12T04:21:16;22.00;99.90
18456;DHT22;9357;49.900;8.208;2023-08-12T04:22:48;21.90;99.90
18456;DHT22;9357;49.900;8.208;2023-08-12T04:24:21;22.00;99.90
18456;DHT22;9357;49.900;8.208;2023-08-12T04:25:54;22.00;99.90
18456;DHT22;9357;49.900;8.208;2023-08-12T04:27:26;22.00;99.90
18456;DHT22;9357;49.900;8.208;2023-08-12T04:28:59;22.10;99.90
18456;DHT22;9357;49.900;8.208;2023-08-12T04:30:32;22.10;99.90
18456;DHT22;9357;49.900;8.208;2023-08-12T04:32:05;22.20;99.90
18456;DHT22;9357;49.900;8.208;2023-08-12T04:33:38;22.20;99.90
18456;DHT22;9357;49.900;8.208;2023-08-12T04:35:10;22.30;99.90
18456;DHT22;9357;49.900;8.208;2023-08-12T04:36:42;22.30;99.90
18456;DHT22;9357;49.900;8.208;2023-08-12T04:38:15;22.30;99.90
18456;DHT22;9357;49.900;8.208;2023-08-12T04:39:48;22.30;99.90
18456;DHT22;9357;49.900;8.208;2023-08-12T04:41:19;22.30;99.90
18456;DHT22;9357;49.900;8.208;2023-08-12T04:42:54;22.20;99.90
18456;DHT22;9357;49.900;8.208;2023-08-12T04:44:27;22.10;99.90
18456;DHT22;9357;49.900;8.208;2023-08-12T04:46:00;22.00;99.90
18456;DHT22;9357;49.900;8.208;2023-08-12T04:47:33;21.90;99.90
18456;DHT22;9357;49.900;8.208;2023-08-12T04:49:05;21.90;99.90
18456;DHT22;9357;49.900;8.208;2023-08-12T04:50:37;21.80;99.90
18456;DHT22;9357;49.900;8.208;2023-08-12T04:52:10;21.70;99.90
18456;DHT22;9357;49.900;8.208;2023-08-12T04:53:42;21.60;99.90
18456;DHT22;9357;49.900;8.208;2023-08-12T04:55:15;21.60;99.90
18456;DHT22;9357;49.900;8.208;2023-08-12T04:56:47;21.50;99.90
18456;DHT22;9357;49.900;8.208;2023-08-12T04:58:20;21.50;99.90
18456;DHT22;9357;49.900;8.208;2023-08-12T04:59:53;21.50;99.90
18456;DHT22;9357;49.900;8.208;2023-08-12T05:01:26;21.50;99.90
18456;DHT22;9357;49.900;8.208;2023-08-12T05:02:58;21.60;99.90
18456;DHT22;9357;49.900;8.208;2023-08-12T05:04:31;21.50;99.90
18456;DHT22;9357;49.900;8.208;2023-08-12T05:06:03;21.50;99.90
18456;DHT22;9357;49.900;8.208;2023-08-12T05:07:36;21.40;99.90
18456;DHT22;9357;49.900;8.208;2023-08-12T05:09:11;21.50;99.90
18456;DHT22;9357;49.900;8.208;2023-08-12T05:10:46;21.40;99.90
18456;DHT22;9357;49.900;8.208;2023-08-12T05:12:18;21.50;99.90
18456;DHT22;9357;49.900;8.208;2023-08-12T05:13:51;21.50;99.90
18456;DHT22;9357;49.900;8.208;2023-08-12T05:15:25;21.50;99.90
18456;DHT22;9357;49.900;8.208;2023-08-12T05:16:57;21.50;99.90
18456;DHT22;9357;49.900;8.208;2023-08-12T05:18:30;21.50;99.90
18456;DHT22;9357;49.900;8.208;2023-08-12T05:20:01;21.50;99.90
18456;DHT22;9357;49.900;8.208;2023-08-12T05:21:34;21.50;99.90
18456;DHT22;9357;49.900;8.208;2023-08-12T05:23:06;21.50;99.90
18456;DHT22;9357;49.900;8.208;2023-08-12T05:24:39;21.50;99.90
18456;DHT22;9357;49.900;8.208;2023-08-12T05:26:11;21.60;99.90
18456;DHT22;9357;49.900;8.208;2023-08-12T05:27:44;21.70;99.90
18456;DHT22;9357;49.900;8.208;2023-08-12T05:29:15;21.70;99.90
18456;DHT22;9357;49.900;8.208;2023-08-12T05:30:49;21.70;99.90
18456;DHT22;9357;49.900;8.208;2023-08-12T05:32:22;21.70;99.90
18456;DHT22;9357;49.900;8.208;2023-08-12T05:33:54;21.80;99.90
18456;DHT22;9357;49.900;8.208;2023-08-12T05:35:27;21.80;99.90
18456;DHT22;9357;49.900;8.208;2023-08-12T05:36:59;21.80;99.90
18456;DHT22;9357;49.900;8.208;2023-08-12T05:38:32;21.80;99.90
18456;DHT22;9357;49.900;8.208;2023-08-12T05:40:05;21.80;99.90
18456;DHT22;9357;49.900;8.208;2023-08-12T05:41:40;21.80;99.90
18456;DHT22;9357;49.900;8.208;2023-08-12T05:43:12;21.80;99.90
18456;DHT22;9357;49.900;8.208;2023-08-12T05:44:45;21.90;99.90
18456;DHT22;9357;49.900;8.208;2023-08-12T05:46:18;21.90;99.90
18456;DHT22;9357;49.900;8.208;2023-08-12T05:47:51;21.80;99.90
18456;DHT22;9357;49.900;8.208;2023-08-12T05:49:23;21.90;99.90
18456;DHT22;9357;49.900;8.208;2023-08-12T05:50:56;21.90;99.90
18456;DHT22;9357;49.900;8.208;2023-08-12T05:52:27;21.90;99.90
18456;DHT22;9357;49.900;8.208;2023-08-12T05:54:00;21.90;99.90
18456;DHT22;9357;49.900;8.208;2023-08-12T05:55:33;21.90;99.90
18456;DHT22;9357;49.900;8.208;2023-08-12T05:57:06;22.00;99.90
18456;DHT22;9357;49.900;8.208;2023-08-12T05:58:39;22.00;99.90
18456;DHT22;9357;49.900;8.208;2023-08-12T06:00:11;22.00;99.90
18456;DHT22;9357;49.900;8.208;2023-08-12T06:01:45;22.00;99.90
18456;DHT22;9357;49.900;8.208;2023-08-12T06:03:17;22.10;99.90
18456;DHT22;9357;49.900;8.208;2023-08-12T06:04:50;22.10;99.90
18456;DHT22;9357;49.900;8.208;2023-08-12T06:06:22;22.20;99.90
18456;DHT22;9357;49.900;8.208;2023-08-12T06:07:55;22.20;99.90
18456;DHT22;9357;49.900;8.208;2023-08-12T06:09:27;22.20;99.90
18456;DHT22;9357;49.900;8.208;2023-08-12T06:10:59;22.20;99.90
18456;DHT22;9357;49.900;8.208;2023-08-12T06:12:31;22.20;99.90
18456;DHT22;9357;49.900;8.208;2023-08-12T06:14:04;22.30;99.90
18456;DHT22;9357;49.900;8.208;2023-08-12T06:15:36;22.30;99.90
18456;DHT22;9357;49.900;8.208;2023-08-12T06:17:10;22.30;99.90
18456;DHT22;9357;49.900;8.208;2023-08-12T06:18:42;22.30;99.90
18456;DHT22;9357;49.900;8.208;2023-08-12T06:20:15;22.30;99.90
18456;DHT22;9357;49.900;8.208;2023-08-12T06:21:46;22.40;99.90
18456;DHT22;9357;49.900;8.208;2023-08-12T06:23:19;22.40;99.90
18456;DHT22;9357;49.900;8.208;2023-08-12T06:24:51;22.40;99.90
18456;DHT22;9357;49.900;8.208;2023-08-12T06:26:24;22.40;99.90
18456;DHT22;9357;49.900;8.208;2023-08-12T06:27:56;22.50;99.90
18456;DHT22;9357;49.900;8.208;2023-08-12T06:29:30;22.50;99.90
18456;DHT22;9357;49.900;8.208;2023-08-12T06:31:02;22.60;99.90
18456;DHT22;9357;49.900;8.208;2023-08-12T06:32:36;22.60;99.90
18456;DHT22;9357;49.900;8.208;2023-08-12T06:34:09;22.70;99.90
18456;DHT22;9357;49.900;8.208;2023-08-12T06:35:42;22.70;99.90
18456;DHT22;9357;49.900;8.208;2023-08-12T06:37:14;22.80;99.90
18456;DHT22;9357;49.900;8.208;2023-08-12T06:38:46;22.80;99.90
18456;DHT22;9357;49.900;8.208;2023-08-12T06:40:18;22.80;99.90
18456;DHT22;9357;49.900;8.208;2023-08-12T06:41:51;22.90;99.90
18456;DHT22;9357;49.900;8.208;2023-08-12T06:43:24;22.90;99.90
18456;DHT22;9357;49.900;8.208;2023-08-12T06:45:00;23.00;99.90
18456;DHT22;9357;49.900;8.208;2023-08-12T06:46:32;23.00;99.90
18456;DHT22;9357;49.900;8.208;2023-08-12T06:48:06;23.00;99.90
18456;DHT22;9357;49.900;8.208;2023-08-12T06:49:38;23.10;99.90
18456;DHT22;9357;49.900;8.208;2023-08-12T06:51:11;23.10;99.90
18456;DHT22;9357;49.900;8.208;2023-08-12T06:52:44;23.20;99.90
18456;DHT22;9357;49.900;8.208;2023-08-12T06:54:15;23.20;99.90
18456;DHT22;9357;49.900;8.208;2023-08-12T06:55:48;23.30;99.90
18456;DHT22;9357;49.900;8.208;2023-08-12T06:57:20;23.30;99.90
18456;DHT22;9357;49.900;8.208;2023-08-12T06:58:53;23.40;99.90
18456;DHT22;9357;49.900;8.208;2023-08-12T07:00:25;23.40;99.90
18456;DHT22;9357;49.900;8.208;2023-08-12T07:01:58;23.40;99.90
18456;DHT22;9357;49.900;8.208;2023-08-12T07:03:32;23.50;99.90
18456;DHT22;9357;49.900;8.208;2023-08-12T07:05:05;23.50;99.90
18456;DHT22;9357;49.900;8.208;2023-08-12T07:06:38;23.50;99.90
18456;DHT22;9357;49.900;8.208;2023-08-12T07:08:09;23.60;99.90
18456;DHT22;9357;49.900;8.208;2023-08-12T07:09:42;23.60;99.90
18456;DHT22;9357;49.900;8.208;2023-08-12T07:11:14;23.60;99.90
18456;DHT22;9357;49.900;8.208;2023-08-12T07:12:47;23.60;99.90
18456;DHT22;9357;49.900;8.208;2023-08-12T07:14:19;23.50;99.90
18456;DHT22;9357;49.900;8.208;2023-08-12T07:15:52;23.60;99.90
18456;DHT22;9357;49.900;8.208;2023-08-12T07:17:24;23.60;99.90
18456;DHT22;9357;49.900;8.208;2023-08-12T07:18:58;23.60;99.90
18456;DHT22;9357;49.900;8.208;2023-08-12T07:20:29;23.60;99.90
18456;DHT22;9357;49.900;8.208;2023-08-12T07:22:02;23.60;99.90
18456;DHT22;9357;49.900;8.208;2023-08-12T07:23:35;23.70;99.90
18456;DHT22;9357;49.900;8.208;2023-08-12T07:25:09;23.80;99.90
18456;DHT22;9357;49.900;8.208;2023-08-12T07:26:42;24.00;99.90
18456;DHT22;9357;49.900;8.208;2023-08-12T07:28:15;24.10;99.90
18456;DHT22;9357;49.900;8.208;2023-08-12T07:29:47;24.20;99.90
18456;DHT22;9357;49.900;8.208;2023-08-12T07:31:19;24.20;99.90
18456;DHT22;9357;49.900;8.208;2023-08-12T07:32:51;24.20;99.90
18456;DHT22;9357;49.900;8.208;2023-08-12T07:34:25;24.30;99.90
18456;DHT22;9357;49.900;8.208;2023-08-12T07:36:02;24.30;99.90
18456;DHT22;9357;49.900;8.208;2023-08-12T07:37:34;24.30;99.90
18456;DHT22;9357;49.900;8.208;2023-08-12T07:39:07;24.40;99.90
18456;DHT22;9357;49.900;8.208;2023-08-12T07:40:39;24.40;99.90
18456;DHT22;9357;49.900;8.208;2023-08-12T07:42:13;24.50;99.90
18456;DHT22;9357;49.900;8.208;2023-08-12T07:43:45;24.50;99.90
18456;DHT22;9357;49.900;8.208;2023-08-12T07:45:17;24.60;99.90
18456;DHT22;9357;49.900;8.208;2023-08-12T07:46:50;24.60;99.90
18456;DHT22;9357;49.900;8.208;2023-08-12T07:48:23;24.60;99.90
18456;DHT22;9357;49.900;8.208;2023-08-12T07:49:57;24.70;99.90
18456;DHT22;9357;49.900;8.208;2023-08-12T07:51:29;24.60;99.90
18456;DHT22;9357;49.900;8.208;2023-08-12T07:53:01;24.70;99.90
18456;DHT22;9357;49.900;8.208;2023-08-12T07:54:35;24.80;99.90
18456;DHT22;9357;49.900;8.208;2023-08-12T07:56:06;24.80;99.90
18456;DHT22;9357;49.900;8.208;2023-08-12T07:57:40;24.90;99.90
18456;DHT22;9357;49.900;8.208;2023-08-12T07:59:11;24.90;99.90
18456;DHT22;9357;49.900;8.208;2023-08-12T08:00:44;24.80;99.90
18456;DHT22;9357;49.900;8.208;2023-08-12T08:02:16;24.90;99.90
18456;DHT22;9357;49.900;8.208;2023-08-12T08:03:49;25.00;99.90
18456;DHT22;9357;49.900;8.208;2023-08-12T08:05:22;25.20;99.90
18456;DHT22;9357;49.900;8.208;2023-08-12T08:06:55;25.40;99.90
18456;DHT22;9357;49.900;8.208;2023-08-12T08:08:26;25.50;99.90
18456;DHT22;9357;49.900;8.208;2023-08-12T08:09:59;25.50;99.90
18456;DHT22;9357;49.900;8.208;2023-08-12T08:11:32;25.60;99.90
18456;DHT22;9357;49.900;8.208;2023-08-12T08:13:05;25.60;99.90
18456;DHT22;9357;49.900;8.208;2023-08-12T08:14:38;25.70;99.90
18456;DHT22;9357;49.900;8.208;2023-08-12T08:16:10;25.70;99.90
18456;DHT22;9357;49.900;8.208;2023-08-12T08:17:43;25.90;99.90
18456;DHT22;9357;49.900;8.208;2023-08-12T08:19:15;26.00;99.90
18456;DHT22;9357;49.900;8.208;2023-08-12T08:20:49;26.10;99.90
18456;DHT22;9357;49.900;8.208;2023-08-12T08:22:22;26.20;99.90
18456;DHT22;9357;49.900;8.208;2023-08-12T08:23:55;26.40;99.90
18456;DHT22;9357;49.900;8.208;2023-08-12T08:25:26;26.50;99.90
18456;DHT22;9357;49.900;8.208;2023-08-12T08:26:59;26.80;99.90
18456;DHT22;9357;49.900;8.208;2023-08-12T08:28:31;27.00;99.90
18456;DHT22;9357;49.900;8.208;2023-08-12T08:30:05;27.20;99.90
18456;DHT22;9357;49.900;8.208;2023-08-12T08:31:37;27.30;99.90
18456;DHT22;9357;49.900;8.208;2023-08-12T08:33:10;27.30;99.90
18456;DHT22;9357;49.900;8.208;2023-08-12T08:34:43;27.30;99.90
18456;DHT22;9357;49.900;8.208;2023-08-12T08:36:16;27.40;99.90
18456;DHT22;9357;49.900;8.208;2023-08-12T08:37:49;27.30;99.90
18456;DHT22;9357;49.900;8.208;2023-08-12T08:39:22;27.30;99.90
18456;DHT22;9357;49.900;8.208;2023-08-12T08:40:54;27.30;99.90
18456;DHT22;9357;49.900;8.208;2023-08-12T08:42:29;27.20;99.90
18456;DHT22;9357;49.900;8.208;2023-08-12T08:44:02;27.10;99.90
18456;DHT22;9357;49.900;8.208;2023-08-12T08:45:38;27.10;99.90
18456;DHT22;9357;49.900;8.208;2023-08-12T08:47:12;27.10;99.90
18456;DHT22;9357;49.900;8.208;2023-08-12T08:48:46;27.20;99.90
18456;DHT22;9357;49.900;8.208;2023-08-12T08:50:20;27.20;99.90
18456;DHT22;9357;49.900;8.208;2023-08-12T08:51:55;27.20;99.90
18456;DHT22;9357;49.900;8.208;2023-08-12T08:53:28;27.30;99.90
18456;DHT22;9357;49.900;8.208;2023-08-12T08:55:01;27.20;99.90
18456;DHT22;9357;49.900;8.208;2023-08-12T08:56:38;27.20;99.90
18456;DHT22;9357;49.900;8.208;2023-08-12T08:58:21;27.20;99.90
18456;DHT22;9357;49.900;8.208;2023-08-12T08:59:56;27.20;99.90
18456;DHT22;9357;49.900;8.208;2023-08-12T09:01:29;27.30;99.90
18456;DHT22;9357;49.900;8.208;2023-08-12T09:03:05;27.30;99.90
18456;DHT22;9357;49.900;8.208;2023-08-12T09:04:37;27.40;99.90
18456;DHT22;9357;49.900;8.208;2023-08-12T09:06:10;27.50;99.90
18456;DHT22;9357;49.900;8.208;2023-08-12T09:07:45;27.60;99.90
18456;DHT22;9357;49.900;8.208;2023-08-12T09:09:19;27.60;99.90
18456;DHT22;9357;49.900;8.208;2023-08-12T09:10:53;27.80;99.90
18456;DHT22;9357;49.900;8.208;2023-08-12T09:12:25;27.90;99.90
18456;DHT22;9357;49.900;8.208;2023-08-12T09:13:58;28.00;99.90
18456;DHT22;9357;49.900;8.208;2023-08-12T09:15:30;28.10;99.90
18456;DHT22;9357;49.900;8.208;2023-08-12T09:17:03;28.30;99.90
18456;DHT22;9357;49.900;8.208;2023-08-12T09:18:36;28.50;99.90
18456;DHT22;9357;49.900;8.208;2023-08-12T09:20:10;28.60;99.90
18456;DHT22;9357;49.900;8.208;2023-08-12T09:21:43;28.70;99.90
18456;DHT22;9357;49.900;8.208;2023-08-12T09:23:26;28.70;99.90
18456;DHT22;9357;49.900;8.208;2023-08-12T09:24:59;28.80;99.90
18456;DHT22;9357;49.900;8.208;2023-08-12T09:26:31;28.80;99.90
18456;DHT22;9357;49.900;8.208;2023-08-12T09:28:04;28.80;99.90
18456;DHT22;9357;49.900;8.208;2023-08-12T09:29:36;28.80;99.90
18456;DHT22;9357;49.900;8.208;2023-08-12T09:31:21;28.80;99.90
18456;DHT22;9357;49.900;8.208;2023-08-12T09:33:01;28.90;99.90
18456;DHT22;9357;49.900;8.208;2023-08-12T09:34:34;28.90;99.90
18456;DHT22;9357;49.900;8.208;2023-08-12T09:36:07;28.90;99.90
18456;DHT22;9357;49.900;8.208;2023-08-12T09:37:41;29.00;99.90
18456;DHT22;9357;49.900;8.208;2023-08-12T09:39:14;29.00;99.90
18456;DHT22;9357;49.900;8.208;2023-08-12T09:40:47;29.00;99.90
18456;DHT22;9357;49.900;8.208;2023-08-12T09:42:19;28.90;99.90
18456;DHT22;9357;49.900;8.208;2023-08-12T09:43:52;28.80;99.90
18456;DHT22;9357;49.900;8.208;2023-08-12T09:45:25;28.60;99.90
18456;DHT22;9357;49.900;8.208;2023-08-12T09:46:57;28.40;99.90
18456;DHT22;9357;49.900;8.208;2023-08-12T09:48:30;28.40;99.90
18456;DHT22;9357;49.900;8.208;2023-08-12T09:50:03;28.20;99.90
18456;DHT22;9357;49.900;8.208;2023-08-12T09:51:35;28.20;99.90
18456;DHT22;9357;49.900;8.208;2023-08-12T09:53:09;28.00;99.90
18456;DHT22;9357;49.900;8.208;2023-08-12T09:54:43;28.00;99.90
18456;DHT22;9357;49.900;8.208;2023-08-12T09:56:18;27.90;99.90